Time;durP1;ratioP1;P1;durP2;ratioP2;P2;SDS_P1;SDS_P2;PMS_P1;PMS_P2;Temp;Humidity;BMP_temperature;BMP_pressure;BME280_temperature;BME280_humidity;BME280_pressure;Samples;Min_cycle;Max_cycle;Signal;HPM_P1;HPM_P2
2022/11/09 00:00:53;;;;;;;8.18;5.70;;;12.50;99.90;;;;;;5035207;28;20184;-74
2022/11/09 00:03:18;;;;;;;8.27;5.80;;;12.60;99.90;;;;;;5031228;28;20546;-74
2022/11/09 00:05:57;;;;;;;10.43;6.38;;;12.60;99.90;;;;;;5032182;28;20415;-74
2022/11/09 00:08:23;;;;;;;12.82;5.93;;;12.60;99.90;;;;;;5031956;28;20025;-74
2022/11/09 00:10:49;;;;;;;8.68;5.97;;;12.60;99.90;;;;;;5032793;28;20030;-74
2022/11/09 00:13:15;;;;;;;8.68;5.78;;;12.60;99.90;;;;;;5032870;28;20033;-74
2022/11/09 00:15:40;;;;;;;7.38;5.40;;;12.70;99.90;;;;;;5032486;28;20121;-74
2022/11/09 00:18:06;;;;;;;10.68;6.15;;;12.70;99.90;;;;;;5032482;28;20022;-74
2022/11/09 00:20:31;;;;;;;14.25;6.53;;;12.70;99.90;;;;;;5032956;28;20483;-74
2022/11/09 00:22:57;;;;;;;10.25;6.07;;;12.60;99.90;;;;;;5034177;28;20494;-74
2022/11/09 00:25:26;;;;;;;11.93;7.10;;;12.60;99.90;;;;;;5034338;28;20104;-74
2022/11/09 00:27:52;;;;;;;9.05;6.43;;;12.50;99.90;;;;;;5034319;28;20471;-74
2022/11/09 00:30:17;;;;;;;14.07;7.45;;;12.50;99.90;;;;;;5034207;28;20029;-74
2022/11/09 00:32:43;;;;;;;12.30;7.88;;;12.50;99.90;;;;;;5049545;28;20084;-74
2022/11/09 00:35:09;;;;;;;13.45;7.82;;;12.50;99.90;;;;;;5034168;28;20112;-74
2022/11/09 00:37:34;;;;;;;12.00;6.75;;;12.50;99.90;;;;;;5033881;28;20438;-74
2022/11/09 00:40:00;;;;;;;9.80;6.68;;;12.50;99.90;;;;;;5033892;28;20021;-74
2022/11/09 00:42:26;;;;;;;9.48;6.85;;;12.50;99.90;;;;;;5034062;28;20543;-74
2022/11/09 00:44:52;;;;;;;10.05;7.07;;;12.50;99.90;;;;;;5029687;28;20202;-71
2022/11/09 00:47:17;;;;;;;9.20;6.30;;;12.50;99.90;;;;;;4995672;28;20024;-74
2022/11/09 00:49:43;;;;;;;9.40;6.72;;;12.50;99.90;;;;;;5032027;28;20053;-74
2022/11/09 00:52:08;;;;;;;9.68;7.07;;;12.50;99.90;;;;;;5015972;28;20033;-74
2022/11/09 00:54:34;;;;;;;8.68;6.15;;;12.50;99.90;;;;;;5033903;28;20438;-74
2022/11/09 00:57:00;;;;;;;10.20;6.78;;;12.60;99.90;;;;;;5017053;28;20476;-74
2022/11/09 00:59:25;;;;;;;9.02;6.60;;;12.50;99.90;;;;;;5013731;28;20053;-74
2022/11/09 01:01:51;;;;;;;10.23;6.53;;;12.50;99.90;;;;;;5013936;28;20472;-73
2022/11/09 01:04:17;;;;;;;9.15;6.07;;;12.50;99.90;;;;;;5013773;28;20044;-74
2022/11/09 01:06:42;;;;;;;8.68;6.70;;;12.50;99.90;;;;;;5028828;28;20499;-74
2022/11/09 01:09:08;;;;;;;13.02;7.65;;;12.50;99.90;;;;;;4995979;28;20029;-74
2022/11/09 01:11:34;;;;;;;8.68;6.65;;;12.50;99.90;;;;;;5013601;28;20462;-74
2022/11/09 01:14:00;;;;;;;8.35;6.75;;;12.60;99.90;;;;;;4996028;28;20037;-74
2022/11/09 01:16:26;;;;;;;11.45;7.22;;;12.50;99.90;;;;;;5013555;28;20033;-74
2022/11/09 01:18:53;;;;;;;11.13;7.25;;;12.60;99.90;;;;;;4995680;28;20349;-74
2022/11/09 01:21:19;;;;;;;8.75;7.15;;;12.50;99.90;;;;;;4995786;28;20037;-74
2022/11/09 01:23:45;;;;;;;10.77;7.72;;;12.50;99.90;;;;;;5013559;28;20010;-74
2022/11/09 01:26:12;;;;;;;10.43;7.22;;;12.50;99.90;;;;;;4995555;28;20052;-74
2022/11/09 01:28:38;;;;;;;11.55;7.28;;;12.50;99.90;;;;;;5013213;28;20056;-74
2022/11/09 01:31:11;;;;;;;10.80;7.25;;;12.50;99.90;;;;;;5013474;28;20065;-74
2022/11/09 01:33:37;;;;;;;8.57;6.72;;;12.50;99.90;;;;;;5013331;28;20030;-74
2022/11/09 01:36:11;;;;;;;10.18;6.80;;;12.50;99.90;;;;;;5013128;28;20060;-74
2022/11/09 01:38:38;;;;;;;10.15;7.10;;;12.50;99.90;;;;;;5013226;28;20029;-74
2022/11/09 01:41:05;;;;;;;9.93;7.57;;;12.50;99.90;;;;;;5013095;28;20021;-74
2022/11/09 01:43:31;;;;;;;9.23;8.00;;;12.50;99.90;;;;;;5012949;28;20022;-74
2022/11/09 01:46:08;;;;;;;13.52;9.18;;;12.50;99.90;;;;;;5025679;28;20068;-74
2022/11/09 01:48:43;;;;;;;13.18;9.00;;;12.50;99.90;;;;;;5032493;28;20041;-74
2022/11/09 01:51:22;;;;;;;11.45;8.38;;;12.50;99.90;;;;;;5047944;28;20085;-74
2022/11/09 01:53:53;;;;;;;13.07;9.43;;;12.50;99.90;;;;;;5034871;28;20025;-74
2022/11/09 01:56:19;;;;;;;15.73;9.80;;;12.50;99.90;;;;;;5032329;28;20088;-74
2022/11/09 01:58:47;;;;;;;12.35;8.10;;;12.50;99.90;;;;;;5031470;28;20026;-74
2022/11/09 02:01:16;;;;;;;12.48;8.70;;;12.50;99.90;;;;;;5014525;28;20017;-74
2022/11/09 02:04:06;;;;;;;13.23;8.13;;;12.50;99.90;;;;;;5032415;28;20014;-74
2022/11/09 02:06:32;;;;;;;11.52;7.28;;;12.50;99.90;;;;;;5023440;28;20037;-74
2022/11/09 02:09:11;;;;;;;11.98;7.18;;;12.50;99.90;;;;;;5047568;28;20025;-71
2022/11/09 02:11:37;;;;;;;11.73;8.00;;;12.40;99.90;;;;;;5032463;28;20025;-74
2022/11/09 02:14:04;;;;;;;11.27;7.93;;;12.50;99.90;;;;;;5032228;28;20395;-74
2022/11/09 02:16:32;;;;;;;9.00;7.53;;;12.50;99.90;;;;;;5014330;28;20086;-74
2022/11/09 02:19:02;;;;;;;12.88;7.93;;;12.50;99.90;;;;;;5014175;28;20422;-74
2022/11/09 02:21:29;;;;;;;11.23;7.70;;;12.40;99.90;;;;;;5032123;28;20021;-74
2022/11/09 02:23:55;;;;;;;13.15;7.90;;;12.40;99.90;;;;;;5031983;28;20029;-74
2022/11/09 02:26:40;;;;;;;10.98;7.43;;;12.40;99.90;;;;;;5025394;28;20032;-74
2022/11/09 02:29:09;;;;;;;10.73;7.97;;;12.40;99.90;;;;;;5033700;28;20127;-74
2022/11/09 02:31:41;;;;;;;12.15;7.90;;;12.40;99.90;;;;;;5051782;28;20421;-74
2022/11/09 02:34:15;;;;;;;;;;;12.50;99.90;;;;;;5052166;28;20457;-74
2022/11/09 02:36:42;;;;;;;13.05;7.97;;;12.50;99.90;;;;;;5051575;28;19908;-74
2022/11/09 02:39:09;;;;;;;10.88;8.02;;;12.40;99.90;;;;;;5051551;28;20099;-74
2022/11/09 02:41:44;;;;;;;11.32;7.95;;;12.40;99.90;;;;;;5051837;28;20024;-74
2022/11/09 02:44:11;;;;;;;12.15;8.00;;;12.40;99.90;;;;;;5033755;28;20404;-74
2022/11/09 02:46:37;;;;;;;10.80;7.68;;;12.40;99.90;;;;;;5033731;28;20056;-74
2022/11/09 02:49:03;;;;;;;10.90;8.10;;;12.40;99.90;;;;;;5033544;28;20031;-74
2022/11/09 02:51:29;;;;;;;12.23;8.70;;;12.30;99.90;;;;;;5051499;28;20387;-74
2022/11/09 02:53:58;;;;;;;12.85;8.70;;;12.30;99.90;;;;;;5051663;28;20025;-74
2022/11/09 02:56:24;;;;;;;18.08;10.55;;;12.30;99.90;;;;;;5039764;28;20502;-74
2022/11/09 02:58:49;;;;;;;12.80;10.02;;;12.30;99.90;;;;;;5046674;28;20030;-74
2022/11/09 03:01:15;;;;;;;14.02;9.27;;;12.40;99.90;;;;;;5029274;28;20510;-74
2022/11/09 03:03:41;;;;;;;14.25;9.65;;;12.40;99.90;;;;;;5051521;28;20033;-74
2022/11/09 03:06:06;;;;;;;16.83;10.40;;;12.40;99.90;;;;;;5051210;28;20185;-74
2022/11/09 03:08:32;;;;;;;12.88;10.05;;;12.40;99.90;;;;;;5051046;28;20052;-74
2022/11/09 03:11:01;;;;;;;14.20;9.57;;;12.40;99.90;;;;;;5033324;28;20067;-74
2022/11/09 03:13:27;;;;;;;16.75;9.70;;;12.50;99.90;;;;;;5051256;28;20435;-73
2022/11/09 03:15:53;;;;;;;14.00;8.98;;;12.50;99.90;;;;;;5033265;28;20123;-71
2022/11/09 03:18:19;;;;;;;10.65;8.13;;;12.50;99.90;;;;;;5033384;28;20074;-73
2022/11/09 03:20:44;;;;;;;14.45;8.77;;;12.50;99.90;;;;;;5051276;28;20107;-74
2022/11/09 03:23:13;;;;;;;15.45;9.45;;;12.50;99.90;;;;;;5051174;28;20021;-74
2022/11/09 03:25:39;;;;;;;11.77;9.20;;;12.50;99.90;;;;;;5045783;28;20030;-74
2022/11/09 03:28:06;;;;;;;12.82;8.32;;;12.50;99.90;;;;;;5031099;28;20037;-74
2022/11/09 03:30:32;;;;;;;11.50;8.10;;;12.50;99.90;;;;;;5046407;28;20025;-75
2022/11/09 03:33:08;;;;;;;11.45;9.15;;;12.50;99.90;;;;;;5031257;28;20100;-74
2022/11/09 03:35:35;;;;;;;12.68;9.32;;;12.50;99.90;;;;;;5030984;28;20029;-74
2022/11/09 03:38:02;;;;;;;16.17;9.20;;;12.50;99.90;;;;;;5031168;28;20026;-74
2022/11/09 03:40:28;;;;;;;12.95;8.98;;;12.50;99.90;;;;;;5013617;28;20018;-74
2022/11/09 03:42:54;;;;;;;15.77;10.05;;;12.50;99.90;;;;;;5031086;28;20403;-74
2022/11/09 03:45:20;;;;;;;12.77;9.57;;;12.50;99.90;;;;;;5030959;28;20065;-74
2022/11/09 03:47:46;;;;;;;15.05;10.73;;;12.50;99.90;;;;;;5031076;28;20026;-74
2022/11/09 03:50:14;;;;;;;13.05;10.05;;;12.50;99.90;;;;;;5013161;28;20073;-74
2022/11/09 03:52:39;;;;;;;13.98;11.10;;;12.50;99.90;;;;;;5031043;28;20080;-74
2022/11/09 03:55:06;;;;;;;15.15;10.93;;;12.50;99.90;;;;;;5031085;28;20026;-74
2022/11/09 03:57:32;;;;;;;15.85;11.68;;;12.50;99.90;;;;;;5030713;28;20101;-74
2022/11/09 03:59:57;;;;;;;17.35;12.77;;;12.50;99.90;;;;;;5015370;28;20112;-74
2022/11/09 04:02:23;;;;;;;19.65;13.20;;;12.50;99.90;;;;;;5031012;28;20026;-74
2022/11/09 04:04:49;;;;;;;20.40;13.82;;;12.50;99.90;;;;;;5030925;28;20029;-74
2022/11/09 04:07:15;;;;;;;22.67;12.43;;;12.50;99.90;;;;;;5030836;28;20507;-74
2022/11/09 04:09:40;;;;;;;17.55;13.10;;;12.50;99.90;;;;;;5013296;28;20025;-74
2022/11/09 04:12:06;;;;;;;23.05;13.30;;;12.50;99.90;;;;;;5030798;28;20025;-74
2022/11/09 04:14:32;;;;;;;18.65;13.27;;;12.40;99.90;;;;;;5030879;28;20051;-74
2022/11/09 04:16:58;;;;;;;15.85;13.15;;;12.40;99.90;;;;;;5030802;28;20095;-74
2022/11/09 04:19:23;;;;;;;21.80;13.50;;;12.40;99.90;;;;;;5030647;28;20503;-74
2022/11/09 04:21:49;;;;;;;20.02;14.07;;;12.40;99.90;;;;;;5032600;28;20017;-74
2022/11/09 04:24:15;;;;;;;22.13;15.13;;;12.40;99.90;;;;;;5034383;28;20025;-74
2022/11/09 04:26:41;;;;;;;25.02;15.48;;;12.40;99.90;;;;;;5034049;28;20380;-75
2022/11/09 04:29:06;;;;;;;27.80;17.00;;;12.50;99.90;;;;;;5034176;28;20029;-75
2022/11/09 04:31:32;;;;;;;25.35;16.27;;;12.50;99.90;;;;;;5034076;28;20025;-74
2022/11/09 04:33:58;;;;;;;26.40;15.68;;;12.50;99.90;;;;;;5034062;28;20033;-74
2022/11/09 04:36:24;;;;;;;23.63;14.02;;;12.50;99.90;;;;;;5034144;28;20486;-74
2022/11/09 04:38:49;;;;;;;21.58;15.10;;;12.50;99.90;;;;;;5033926;28;20031;-74
2022/11/09 04:41:15;;;;;;;18.70;13.55;;;12.50;99.90;;;;;;5016122;28;20093;-74
2022/11/09 04:43:41;;;;;;;20.35;14.23;;;12.50;99.90;;;;;;5016263;28;20135;-74
2022/11/09 04:46:07;;;;;;;19.55;12.98;;;12.50;99.90;;;;;;5033798;28;20045;-74
2022/11/09 04:48:33;;;;;;;24.52;13.63;;;12.50;99.90;;;;;;5033733;28;20082;-75
2022/11/09 04:51:04;;;;;;;24.08;14.40;;;12.50;99.90;;;;;;5033986;28;20397;-74
2022/11/09 04:53:30;;;;;;;21.90;14.48;;;12.50;99.90;;;;;;5033876;28;20551;-74
2022/11/09 04:55:56;;;;;;;24.50;15.10;;;12.50;99.90;;;;;;5033528;28;20159;-74
2022/11/09 04:58:23;;;;;;;28.38;16.00;;;12.50;99.90;;;;;;5033485;28;20021;-74
2022/11/09 05:00:48;;;;;;;22.13;15.15;;;12.50;99.90;;;;;;5033768;28;20033;-74
2022/11/09 05:03:14;;;;;;;23.10;15.48;;;12.50;99.90;;;;;;5045096;28;20017;-74
2022/11/09 05:05:40;;;;;;;25.80;16.67;;;12.50;99.90;;;;;;5053481;28;20368;-74
2022/11/09 05:08:07;;;;;;;29.40;17.10;;;12.50;99.90;;;;;;5053512;28;20029;-74
2022/11/09 05:10:33;;;;;;;26.30;16.77;;;12.50;99.90;;;;;;5053339;28;20040;-74
2022/11/09 05:13:05;;;;;;;25.55;17.17;;;12.50;99.90;;;;;;5053316;28;20387;-75
2022/11/09 05:15:31;;;;;;;28.77;20.30;;;12.50;99.90;;;;;;5053119;28;20025;-74
2022/11/09 05:17:57;;;;;;;33.88;20.92;;;12.60;99.90;;;;;;5035344;28;20025;-74
2022/11/09 05:20:24;;;;;;;30.55;18.42;;;12.60;99.90;;;;;;5053349;28;20079;-74
2022/11/09 05:25:33;;;;;;;24.58;16.65;;;12.50;99.90;;;;;;5048256;28;20122;-74
2022/11/09 05:28:02;;;;;;;27.05;17.58;;;12.50;99.90;;;;;;5033177;28;20060;-74
2022/11/09 05:30:28;;;;;;;21.70;17.02;;;12.50;99.90;;;;;;5015096;28;20040;-74
2022/11/09 05:32:54;;;;;;;25.58;16.85;;;12.50;99.90;;;;;;5047948;28;20030;-74
2022/11/09 05:35:19;;;;;;;25.75;17.63;;;12.50;99.90;;;;;;5032983;28;20025;-72
2022/11/09 05:37:47;;;;;;;25.48;16.38;;;12.50;99.90;;;;;;5012633;28;20480;-74
2022/11/09 05:40:13;;;;;;;25.30;17.38;;;12.50;99.90;;;;;;5031115;28;20036;-74
2022/11/09 05:42:40;;;;;;;28.67;19.60;;;12.40;99.90;;;;;;5033866;28;20048;-74
2022/11/09 05:45:07;;;;;;;29.88;19.05;;;12.40;99.90;;;;;;5033672;28;20045;-74
2022/11/09 05:47:39;;;;;;;31.33;20.75;;;12.50;99.90;;;;;;5051666;28;20013;-74
2022/11/09 05:50:06;;;;;;;;;;;12.50;99.90;;;;;;5052045;28;20025;-74
2022/11/09 05:52:35;;;;;;;30.13;20.33;;;12.40;99.90;;;;;;5033362;28;19908;-74
2022/11/09 05:55:01;;;;;;;32.95;20.35;;;12.40;99.90;;;;;;5031742;28;20498;-74
2022/11/09 05:57:31;;;;;;;30.80;20.52;;;12.40;99.90;;;;;;5050715;28;20017;-72
2022/11/09 05:59:56;;;;;;;28.63;19.67;;;12.40;99.90;;;;;;5033689;28;20116;-74
2022/11/09 06:02:23;;;;;;;28.80;19.25;;;12.40;99.90;;;;;;5033665;28;20108;-74
2022/11/09 06:04:48;;;;;;;32.80;20.83;;;12.40;99.90;;;;;;5038979;28;20052;-74
2022/11/09 06:07:14;;;;;;;28.38;17.35;;;12.40;99.90;;;;;;5024747;28;20542;-74
2022/11/09 06:09:40;;;;;;;32.05;19.70;;;12.50;99.90;;;;;;5042767;28;20026;-74
2022/11/09 06:12:09;;;;;;;27.23;18.70;;;12.50;99.90;;;;;;5041455;28;20049;-74
2022/11/09 06:14:35;;;;;;;28.85;17.63;;;12.50;99.90;;;;;;5034983;28;20513;-74
2022/11/09 06:17:01;;;;;;;27.70;19.33;;;12.50;99.90;;;;;;5035235;28;20025;-73
2022/11/09 06:19:26;;;;;;;28.58;19.90;;;12.50;99.90;;;;;;5052555;28;20432;-74
2022/11/09 06:21:52;;;;;;;28.73;20.67;;;12.50;99.90;;;;;;5053298;28;20470;-74
2022/11/09 06:24:18;;;;;;;27.25;19.70;;;12.50;99.90;;;;;;5050963;28;20025;-74
2022/11/09 06:26:43;;;;;;;29.85;20.42;;;12.50;99.90;;;;;;5037257;28;20025;-71
2022/11/09 06:29:09;;;;;;;29.95;19.85;;;12.50;99.90;;;;;;5032008;28;20037;-74
2022/11/09 06:31:35;;;;;;;31.08;19.95;;;12.50;99.90;;;;;;5032031;28;20028;-74
2022/11/09 06:34:02;;;;;;;28.42;20.13;;;12.60;99.90;;;;;;5031785;28;20468;-74
2022/11/09 06:36:27;;;;;;;30.70;19.63;;;12.50;99.90;;;;;;5031603;28;20180;-74
2022/11/09 06:38:53;;;;;;;28.05;20.35;;;12.60;99.90;;;;;;5047279;28;20021;-74
2022/11/09 06:41:19;;;;;;;30.48;19.60;;;12.50;99.90;;;;;;5013990;28;20511;-74
2022/11/09 06:43:45;;;;;;;32.33;20.80;;;12.40;99.90;;;;;;5013081;28;20361;-74
2022/11/09 06:46:13;;;;;;;30.85;20.80;;;12.50;99.90;;;;;;5013972;28;20111;-74
2022/11/09 06:48:39;;;;;;;29.17;20.45;;;12.50;99.90;;;;;;5031479;28;20035;-74
2022/11/09 06:51:05;;;;;;;30.13;20.45;;;12.50;99.90;;;;;;5031627;28;20120;-74
2022/11/09 06:53:33;;;;;;;31.55;20.52;;;12.50;99.90;;;;;;5040053;28;20029;-74
2022/11/09 06:56:03;;;;;;;31.20;21.13;;;12.50;99.90;;;;;;5025449;28;20033;-74
2022/11/09 06:58:30;;;;;;;33.78;21.08;;;12.50;99.90;;;;;;5031354;28;20045;-74
2022/11/09 07:00:56;;;;;;;36.05;22.95;;;12.60;99.90;;;;;;5031401;28;20036;-74
2022/11/09 07:03:22;;;;;;;33.60;23.58;;;12.60;99.90;;;;;;5013670;28;20014;-74
2022/11/09 07:05:51;;;;;;;40.40;26.58;;;12.60;99.90;;;;;;5031594;28;20022;-74
2022/11/09 07:08:17;;;;;;;44.20;27.58;;;12.60;99.90;;;;;;5031211;28;20018;-74
2022/11/09 07:10:43;;;;;;;41.15;26.20;;;12.60;99.90;;;;;;5031325;28;20033;-74
2022/11/09 07:13:10;;;;;;;43.65;26.52;;;12.60;99.90;;;;;;5031404;28;20010;-74
2022/11/09 07:15:37;;;;;;;40.33;26.13;;;12.70;99.90;;;;;;5031307;28;20068;-74
2022/11/09 07:18:04;;;;;;;40.50;28.10;;;12.70;99.90;;;;;;5031029;28;20538;-75
2022/11/09 07:20:30;;;;;;;38.22;26.90;;;12.70;99.90;;;;;;5031191;28;20104;-74
2022/11/09 07:22:56;;;;;;;39.63;27.65;;;12.70;99.90;;;;;;5032139;28;20076;-74
2022/11/09 07:25:23;;;;;;;46.03;26.77;;;12.70;99.90;;;;;;5014277;28;20484;-72
2022/11/09 07:27:49;;;;;;;42.40;26.80;;;12.80;99.90;;;;;;5046994;28;20029;-74
2022/11/09 07:30:15;;;;;;;40.15;27.00;;;12.80;99.90;;;;;;5013640;28;20029;-75
2022/11/09 07:32:44;;;;;;;41.15;27.35;;;12.80;99.90;;;;;;5031184;28;20032;-74
2022/11/09 07:35:10;;;;;;;43.65;27.42;;;12.90;99.90;;;;;;5031293;28;20423;-74
2022/11/09 07:37:36;;;;;;;41.22;28.10;;;12.80;99.90;;;;;;5031303;28;20029;-74
2022/11/09 07:40:03;;;;;;;42.80;28.20;;;12.90;99.90;;;;;;5031439;28;20081;-75
2022/11/09 07:42:28;;;;;;;43.90;29.02;;;12.80;99.90;;;;;;5031563;28;20506;-74
2022/11/09 07:44:54;;;;;;;43.65;28.48;;;12.80;99.90;;;;;;5032003;28;20049;-74
2022/11/09 07:47:20;;;;;;;44.67;29.23;;;12.90;99.90;;;;;;5014003;28;20061;-74
2022/11/09 07:49:46;;;;;;;45.97;28.73;;;12.90;99.90;;;;;;5031815;28;20363;-74
2022/11/09 07:52:12;;;;;;;43.15;30.38;;;12.90;99.90;;;;;;5031739;28;20033;-74
2022/11/09 07:54:38;;;;;;;46.55;28.98;;;12.90;99.90;;;;;;5031942;28;20029;-74
2022/11/09 07:57:05;;;;;;;44.60;29.33;;;12.90;99.90;;;;;;5037797;28;20499;-74
2022/11/09 07:59:31;;;;;;;41.80;28.55;;;12.90;99.90;;;;;;5035811;28;20502;-74
2022/11/09 08:01:57;;;;;;;47.42;27.70;;;12.90;99.90;;;;;;5036038;28;20061;-74
2022/11/09 08:04:23;;;;;;;39.85;28.42;;;12.90;99.90;;;;;;5017988;28;20022;-72
2022/11/09 08:06:51;;;;;;;44.05;27.65;;;12.90;99.90;;;;;;5035769;28;20471;-71
2022/11/09 08:09:17;;;;;;;43.00;28.58;;;13.00;99.90;;;;;;5017691;28;20029;-74
2022/11/09 08:11:44;;;;;;;41.20;27.35;;;13.00;99.90;;;;;;5017670;28;20096;-72
2022/11/09 08:14:09;;;;;;;43.00;29.00;;;13.00;99.90;;;;;;5035516;28;20032;-71
2022/11/09 08:16:41;;;;;;;47.08;30.23;;;13.00;99.90;;;;;;5034590;28;20033;-72
2022/11/09 08:19:10;;;;;;;45.38;30.48;;;13.10;99.90;;;;;;5034735;28;20036;-72
2022/11/09 08:21:36;;;;;;;45.10;30.08;;;13.10;99.90;;;;;;5035019;28;20021;-72
2022/11/09 08:24:04;;;;;;;50.03;30.52;;;13.10;99.90;;;;;;5035343;28;20181;-72
2022/11/09 08:26:30;;;;;;;47.08;31.45;;;13.10;99.90;;;;;;5016999;28;20423;-71
2022/11/09 08:28:56;;;;;;;50.95;31.50;;;13.10;99.90;;;;;;5017507;28;20383;-72
2022/11/09 08:31:22;;;;;;;49.08;31.40;;;13.10;99.90;;;;;;5049601;28;20025;-72
2022/11/09 08:33:48;;;;;;;50.58;32.95;;;13.10;99.90;;;;;;5036653;28;20047;-72
2022/11/09 08:36:16;;;;;;;47.97;31.45;;;13.10;99.90;;;;;;5054635;28;20028;-72
2022/11/09 08:38:43;;;;;;;48.63;31.90;;;13.20;99.90;;;;;;5053563;28;20025;-73
2022/11/09 08:41:11;;;;;;;53.75;32.70;;;13.20;99.90;;;;;;5037080;28;20024;-74
2022/11/09 08:43:37;;;;;;;54.13;35.10;;;13.20;99.90;;;;;;5055233;28;20463;-74
2022/11/09 08:46:03;;;;;;;54.22;35.40;;;13.20;99.90;;;;;;5054859;28;20136;-74
2022/11/09 08:48:29;;;;;;;55.80;35.97;;;13.30;99.90;;;;;;5054692;28;20111;-74
2022/11/09 08:50:57;;;;;;;54.08;35.30;;;13.40;99.90;;;;;;5054927;28;20024;-74
2022/11/09 08:53:25;;;;;;;56.70;33.47;;;13.30;99.90;;;;;;5054769;28;20029;-74
2022/11/09 08:55:51;;;;;;;58.40;31.83;;;13.30;99.90;;;;;;5029599;28;20025;-73
2022/11/09 08:58:17;;;;;;;45.47;29.98;;;13.30;99.90;;;;;;5034790;28;20036;-74
2022/11/09 09:00:43;;;;;;;44.67;27.95;;;13.40;99.90;;;;;;5034714;28;20079;-74
2022/11/09 09:03:09;;;;;;;40.80;26.65;;;13.30;99.90;;;;;;5038169;28;20013;-75
2022/11/09 09:05:35;;;;;;;40.40;25.60;;;13.30;99.90;;;;;;5036676;28;20033;-74
2022/11/09 09:08:02;;;;;;;37.78;25.67;;;13.40;99.90;;;;;;5053667;28;20383;-74
2022/11/09 09:10:28;;;;;;;42.55;27.52;;;13.40;99.90;;;;;;5054546;28;20033;-74
2022/11/09 09:12:54;;;;;;;42.65;27.58;;;13.40;99.90;;;;;;5054378;28;20025;-74
2022/11/09 09:15:21;;;;;;;39.55;25.85;;;13.40;99.90;;;;;;5054374;28;20475;-74
2022/11/09 09:17:47;;;;;;;40.10;25.30;;;13.40;99.90;;;;;;5054149;28;20111;-74
2022/11/09 09:20:13;;;;;;;40.25;28.20;;;13.50;99.90;;;;;;5036359;28;20025;-74
2022/11/09 09:22:39;;;;;;;38.78;26.67;;;13.50;99.90;;;;;;5054135;28;20467;-74
2022/11/09 09:25:05;;;;;;;42.05;26.00;;;13.50;99.90;;;;;;5053496;28;20067;-74
2022/11/09 09:27:31;;;;;;;38.35;24.00;;;13.50;99.90;;;;;;5034001;28;20533;-75
2022/11/09 09:29:57;;;;;;;40.17;26.40;;;13.50;99.90;;;;;;5016546;28;20029;-75
2022/11/09 09:32:23;;;;;;;37.58;24.55;;;13.50;99.90;;;;;;5034408;28;20032;-75
2022/11/09 09:34:58;;;;;;;37.08;23.88;;;13.50;99.90;;;;;;5017821;28;20037;-75
2022/11/09 09:37:24;;;;;;;33.13;23.63;;;13.50;99.90;;;;;;5047176;28;20028;-74
2022/11/09 09:39:50;;;;;;;34.40;24.08;;;13.50;99.90;;;;;;5053849;28;20136;-75
2022/11/09 09:42:20;;;;;;;38.40;24.35;;;13.50;99.90;;;;;;5035531;28;20031;-75
2022/11/09 09:44:55;;;;;;;40.80;24.45;;;13.60;99.90;;;;;;5052807;28;20116;-75
2022/11/09 09:47:31;;;;;;;33.95;23.95;;;13.60;99.90;;;;;;5035962;28;20036;-75
2022/11/09 09:50:10;;;;;;;37.70;24.92;;;13.50;99.90;;;;;;5036097;28;20032;-74
2022/11/09 09:52:44;;;;;;;43.78;26.58;;;13.50;99.90;;;;;;5053557;28;20382;-74
2022/11/09 09:55:23;;;;;;;42.33;26.70;;;13.50;99.90;;;;;;5051974;28;20059;-74
2022/11/09 09:58:01;;;;;;;47.03;29.60;;;13.50;99.90;;;;;;5033524;28;20030;-74
2022/11/09 10:00:27;;;;;;;47.58;29.63;;;13.50;99.90;;;;;;5029358;28;20035;-75
2022/11/09 10:02:53;;;;;;;44.63;28.38;;;13.60;99.90;;;;;;5035649;28;20033;-74
2022/11/09 10:05:26;;;;;;;44.00;30.10;;;13.60;99.90;;;;;;5053473;28;20017;-74
2022/11/09 10:08:25;;;;;;;43.53;27.50;;;13.60;99.90;;;;;;5053400;28;20032;-74
2022/11/09 10:11:11;;;;;;;44.85;27.38;;;13.50;99.90;;;;;;5035565;28;20028;-72
2022/11/09 10:13:59;;;;;;;44.42;28.73;;;13.50;99.90;;;;;;5052626;28;20053;-72
2022/11/09 10:16:43;;;;;;;47.03;29.08;;;13.50;99.90;;;;;;5035290;28;20029;-74
2022/11/09 10:19:38;;;;;;;43.47;30.08;;;13.40;99.90;;;;;;5034508;28;20371;-74
2022/11/09 10:22:11;;;;;;;50.10;30.58;;;13.40;99.90;;;;;;5023672;28;20083;-74
2022/11/09 10:24:49;;;;;;;47.10;29.88;;;13.50;99.90;;;;;;5053302;28;20111;-74
2022/11/09 10:27:35;;;;;;;47.38;30.52;;;13.50;99.90;;;;;;5016372;28;20109;-74
2022/11/09 10:30:14;;;;;;;49.38;30.35;;;13.60;99.90;;;;;;5033052;28;20025;-74
2022/11/09 10:32:42;;;;;;;50.55;29.85;;;13.60;99.90;;;;;;5015084;28;20018;-74
2022/11/09 10:35:29;;;;;;;41.75;26.70;;;13.60;99.90;;;;;;5033168;28;20475;-74
2022/11/09 10:37:55;;;;;;;51.42;31.60;;;13.70;99.90;;;;;;5033016;28;20110;-74
2022/11/09 10:40:40;;;;;;;49.88;30.00;;;13.70;99.90;;;;;;5048469;28;20112;-75
2022/11/09 10:43:10;;;;;;;47.90;30.20;;;13.70;99.90;;;;;;5014973;28;20022;-74
2022/11/09 10:45:41;;;;;;;47.55;29.98;;;13.70;99.90;;;;;;5032807;28;20575;-74
2022/11/09 10:48:08;;;;;;;50.27;31.30;;;13.70;99.90;;;;;;5014847;28;20025;-74
2022/11/09 10:50:47;;;;;;;45.17;31.17;;;13.80;99.90;;;;;;5015113;28;20275;-74
2022/11/09 10:53:16;;;;;;;46.30;30.08;;;13.80;99.90;;;;;;5032849;28;20072;-72
2022/11/09 10:56:04;;;;;;;47.00;31.05;;;13.80;99.90;;;;;;5038742;28;20032;-74
2022/11/09 10:58:38;;;;;;;49.88;31.90;;;13.80;99.90;;;;;;5048586;28;20491;-74
2022/11/09 11:01:17;;;;;;;45.35;30.80;;;13.80;99.90;;;;;;5034621;28;20167;-74
2022/11/09 11:03:44;;;;;;;47.10;30.35;;;13.80;99.90;;;;;;5028224;28;20010;-72
2022/11/09 11:06:14;;;;;;;48.13;31.30;;;13.80;99.90;;;;;;5038289;28;20017;-72
2022/11/09 11:08:43;;;;;;;47.38;30.77;;;13.90;99.90;;;;;;5045674;28;20029;-72
2022/11/09 11:11:11;;;;;;;47.15;31.63;;;14.00;99.90;;;;;;5029277;28;20375;-72
2022/11/09 11:13:37;;;;;;;42.45;30.55;;;14.00;99.90;;;;;;5035414;28;20029;-75
2022/11/09 11:16:25;;;;;;;43.10;30.70;;;14.00;99.90;;;;;;5052057;28;20478;-75
2022/11/09 11:18:50;;;;;;;51.05;31.75;;;14.00;99.90;;;;;;5033621;28;20021;-77
2022/11/09 11:21:22;;;;;;;43.67;30.10;;;14.00;99.90;;;;;;5016784;28;20021;-77
2022/11/09 11:24:15;;;;;;;50.38;31.10;;;14.10;99.90;;;;;;5050827;28;20021;-77
2022/11/09 11:26:59;;;;;;;45.15;30.70;;;14.20;99.90;;;;;;5038330;28;20030;-77
2022/11/09 11:29:40;;;;;;;45.33;30.75;;;14.20;99.90;;;;;;5032539;28;20108;-77
2022/11/09 11:32:13;;;;;;;48.78;32.33;;;14.20;99.90;;;;;;5036348;28;20053;-74
2022/11/09 11:34:39;;;;;;;57.97;34.78;;;14.20;99.90;;;;;;5035791;28;20033;-77
2022/11/09 11:37:20;;;;;;;55.58;33.92;;;14.10;99.90;;;;;;5035121;28;20025;-77
2022/11/09 11:40:21;;;;;;;51.85;34.03;;;14.10;99.90;;;;;;5017478;28;20026;-77
2022/11/09 11:43:16;;;;;;;51.13;31.98;;;14.10;99.90;;;;;;5003942;28;20060;-77
2022/11/09 11:45:57;;;;;;;51.97;33.30;;;14.00;99.90;;;;;;5024548;28;20404;-78
2022/11/09 11:48:41;;;;;;;50.22;32.75;;;14.00;99.90;;;;;;5013606;28;20506;-77
2022/11/09 11:51:26;;;;;;;50.28;32.67;;;14.00;99.90;;;;;;5013445;28;20026;-77
2022/11/09 11:54:25;;;;;;;54.47;32.67;;;14.00;99.90;;;;;;5013736;28;20026;-77
2022/11/09 11:57:07;;;;;;;49.15;32.70;;;14.00;99.90;;;;;;5013382;28;20025;-77
2022/11/09 11:59:46;;;;;;;56.08;32.85;;;14.00;99.90;;;;;;5013628;28;20018;-77
2022/11/09 12:02:18;;;;;;;47.50;31.25;;;13.90;99.90;;;;;;4996737;28;20022;-77
2022/11/09 12:05:00;;;;;;;48.95;32.72;;;13.90;99.90;;;;;;5015309;28;20025;-77
2022/11/09 12:07:28;;;;;;;51.97;31.52;;;13.90;99.90;;;;;;4997330;28;20037;-78
2022/11/09 12:09:54;;;;;;;44.80;28.30;;;13.90;99.90;;;;;;5017436;28;20037;-77
2022/11/09 12:13:09;;;;;;;43.45;28.48;;;13.90;99.90;;;;;;5015150;28;20030;-77
2022/11/09 12:15:53;;;;;;;45.35;29.70;;;13.90;99.90;;;;;;4992170;28;20034;-78
2022/11/09 12:18:24;;;;;;;42.53;29.65;;;13.90;99.90;;;;;;5014938;28;20032;-77
2022/11/09 12:21:01;;;;;;;45.97;30.23;;;13.90;99.90;;;;;;5015011;28;20060;-77
2022/11/09 12:23:46;;;;;;;41.30;27.40;;;13.90;99.90;;;;;;5014811;28;20022;-77
2022/11/09 12:26:37;;;;;;;37.13;26.52;;;13.90;99.90;;;;;;5014492;28;20088;-77
2022/11/09 12:29:41;;;;;;;43.10;28.63;;;13.80;99.90;;;;;;5014582;28;20038;-77
2022/11/09 12:32:24;;;;;;;94.05;45.97;;;13.80;99.90;;;;;;5014545;28;20657;-77
2022/11/09 12:35:15;;;;;;;52.70;32.55;;;13.80;99.90;;;;;;4996786;28;20117;-78
2022/11/09 12:37:50;;;;;;;45.63;29.55;;;13.80;99.90;;;;;;4996966;28;20038;-75
2022/11/09 12:40:25;;;;;;;47.58;28.77;;;13.80;99.90;;;;;;5014556;28;20061;-77
2022/11/09 12:43:00;;;;;;;43.90;28.98;;;13.80;99.90;;;;;;5013308;28;20033;-78
2022/11/09 12:45:38;;;;;;;38.53;27.50;;;13.70;99.90;;;;;;5014093;28;20568;-75